sensor_id;sensor_type;location;lat;lon;timestamp;P1;durP1;ratioP1;P2;durP2;ratioP2
68379;SDS011;57711;53.196;19.638;2023-01-19T00:00:52;70.90;;;38.70;;
68379;SDS011;57711;53.196;19.638;2023-01-19T00:03:26;81.50;;;42.30;;
68379;SDS011;57711;53.196;19.638;2023-01-19T00:05:53;74.70;;;40.60;;
68379;SDS011;57711;53.196;19.638;2023-01-19T00:08:21;66.90;;;37.90;;
68379;SDS011;57711;53.196;19.638;2023-01-19T00:10:48;65.50;;;37.60;;
68379;SDS011;57711;53.196;19.638;2023-01-19T00:13:19;92.20;;;47.20;;
68379;SDS011;57711;53.196;19.638;2023-01-19T00:15:46;66.10;;;36.40;;
68379;SDS011;57711;53.196;19.638;2023-01-19T00:18:13;67.70;;;38.50;;
68379;SDS011;57711;53.196;19.638;2023-01-19T00:20:40;81.20;;;42.70;;
68379;SDS011;57711;53.196;19.638;2023-01-19T00:23:08;104.40;;;49.80;;
68379;SDS011;57711;53.196;19.638;2023-01-19T00:25:36;76.70;;;42.00;;
68379;SDS011;57711;53.196;19.638;2023-01-19T00:28:09;77.30;;;43.20;;
68379;SDS011;57711;53.196;19.638;2023-01-19T00:30:37;60.60;;;34.90;;
68379;SDS011;57711;53.196;19.638;2023-01-19T00:33:05;56.70;;;33.80;;
68379;SDS011;57711;53.196;19.638;2023-01-19T00:35:33;56.30;;;34.90;;
68379;SDS011;57711;53.196;19.638;2023-01-19T00:38:01;62.00;;;36.80;;
68379;SDS011;57711;53.196;19.638;2023-01-19T00:40:29;85.70;;;42.30;;
68379;SDS011;57711;53.196;19.638;2023-01-19T00:42:56;74.20;;;39.30;;
68379;SDS011;57711;53.196;19.638;2023-01-19T00:45:24;66.90;;;38.50;;
68379;SDS011;57711;53.196;19.638;2023-01-19T00:47:51;73.10;;;40.30;;
68379;SDS011;57711;53.196;19.638;2023-01-19T00:50:23;73.60;;;40.90;;
68379;SDS011;57711;53.196;19.638;2023-01-19T00:52:53;72.00;;;41.30;;
68379;SDS011;57711;53.196;19.638;2023-01-19T00:55:21;70.20;;;42.10;;
68379;SDS011;57711;53.196;19.638;2023-01-19T00:57:49;62.20;;;37.90;;
68379;SDS011;57711;53.196;19.638;2023-01-19T01:00:17;71.70;;;41.30;;
68379;SDS011;57711;53.196;19.638;2023-01-19T01:02:46;71.50;;;40.50;;
68379;SDS011;57711;53.196;19.638;2023-01-19T01:05:15;60.00;;;36.50;;
68379;SDS011;57711;53.196;19.638;2023-01-19T01:07:43;77.90;;;41.40;;
68379;SDS011;57711;53.196;19.638;2023-01-19T01:10:18;78.00;;;43.00;;
68379;SDS011;57711;53.196;19.638;2023-01-19T01:12:48;200.30;;;80.00;;
68379;SDS011;57711;53.196;19.638;2023-01-19T01:15:35;85.30;;;45.30;;
68379;SDS011;57711;53.196;19.638;2023-01-19T01:18:02;81.70;;;44.40;;
68379;SDS011;57711;53.196;19.638;2023-01-19T01:20:29;67.00;;;37.90;;
68379;SDS011;57711;53.196;19.638;2023-01-19T01:22:59;64.90;;;37.50;;
68379;SDS011;57711;53.196;19.638;2023-01-19T01:25:27;64.90;;;36.10;;
68379;SDS011;57711;53.196;19.638;2023-01-19T01:27:56;65.80;;;38.20;;
68379;SDS011;57711;53.196;19.638;2023-01-19T01:30:24;76.40;;;41.20;;
68379;SDS011;57711;53.196;19.638;2023-01-19T01:32:51;72.80;;;41.70;;
68379;SDS011;57711;53.196;19.638;2023-01-19T01:35:18;76.70;;;39.80;;
68379;SDS011;57711;53.196;19.638;2023-01-19T01:37:45;85.10;;;45.50;;
68379;SDS011;57711;53.196;19.638;2023-01-19T01:40:13;80.00;;;44.40;;
68379;SDS011;57711;53.196;19.638;2023-01-19T01:42:42;101.10;;;53.30;;
68379;SDS011;57711;53.196;19.638;2023-01-19T01:48:03;68.70;;;39.00;;
68379;SDS011;57711;53.196;19.638;2023-01-19T01:50:37;115.00;;;46.80;;
68379;SDS011;57711;53.196;19.638;2023-01-19T01:53:28;119.60;;;54.60;;
68379;SDS011;57711;53.196;19.638;2023-01-19T01:55:58;101.10;;;51.70;;
68379;SDS011;57711;53.196;19.638;2023-01-19T01:58:30;89.10;;;42.30;;
68379;SDS011;57711;53.196;19.638;2023-01-19T02:00:59;117.90;;;48.10;;
68379;SDS011;57711;53.196;19.638;2023-01-19T02:03:45;83.20;;;41.10;;
68379;SDS011;57711;53.196;19.638;2023-01-19T02:06:13;115.20;;;50.80;;
68379;SDS011;57711;53.196;19.638;2023-01-19T02:08:53;136.30;;;52.90;;
68379;SDS011;57711;53.196;19.638;2023-01-19T02:11:46;92.90;;;45.10;;
68379;SDS011;57711;53.196;19.638;2023-01-19T02:14:33;101.00;;;46.90;;
68379;SDS011;57711;53.196;19.638;2023-01-19T02:17:04;93.00;;;44.60;;
68379;SDS011;57711;53.196;19.638;2023-01-19T02:19:33;83.70;;;42.60;;
68379;SDS011;57711;53.196;19.638;2023-01-19T02:22:08;96.90;;;45.50;;
68379;SDS011;57711;53.196;19.638;2023-01-19T02:24:37;93.90;;;45.10;;
68379;SDS011;57711;53.196;19.638;2023-01-19T02:27:05;87.80;;;45.40;;
68379;SDS011;57711;53.196;19.638;2023-01-19T02:29:33;90.90;;;43.20;;
68379;SDS011;57711;53.196;19.638;2023-01-19T02:32:01;85.00;;;43.40;;
68379;SDS011;57711;53.196;19.638;2023-01-19T02:34:28;89.30;;;42.90;;
68379;SDS011;57711;53.196;19.638;2023-01-19T02:36:57;79.00;;;42.10;;
68379;SDS011;57711;53.196;19.638;2023-01-19T02:39:38;86.70;;;41.40;;
68379;SDS011;57711;53.196;19.638;2023-01-19T02:42:14;73.00;;;38.50;;
68379;SDS011;57711;53.196;19.638;2023-01-19T02:44:47;62.30;;;36.20;;
68379;SDS011;57711;53.196;19.638;2023-01-19T02:47:17;71.60;;;38.50;;
68379;SDS011;57711;53.196;19.638;2023-01-19T02:49:59;70.10;;;35.50;;
68379;SDS011;57711;53.196;19.638;2023-01-19T02:52:27;74.60;;;35.60;;
68379;SDS011;57711;53.196;19.638;2023-01-19T03:03:16;78.10;;;38.60;;
68379;SDS011;57711;53.196;19.638;2023-01-19T03:06:05;72.10;;;38.00;;
68379;SDS011;57711;53.196;19.638;2023-01-19T03:11:27;67.70;;;36.20;;
68379;SDS011;57711;53.196;19.638;2023-01-19T03:16:35;58.20;;;29.00;;
68379;SDS011;57711;53.196;19.638;2023-01-19T03:19:09;63.20;;;32.20;;
68379;SDS011;57711;53.196;19.638;2023-01-19T03:21:59;57.10;;;32.90;;
68379;SDS011;57711;53.196;19.638;2023-01-19T03:24:33;59.50;;;32.40;;
68379;SDS011;57711;53.196;19.638;2023-01-19T03:27:10;66.30;;;37.60;;
68379;SDS011;57711;53.196;19.638;2023-01-19T03:29:39;64.40;;;36.50;;
68379;SDS011;57711;53.196;19.638;2023-01-19T03:32:13;70.40;;;35.50;;
68379;SDS011;57711;53.196;19.638;2023-01-19T03:34:43;136.60;;;54.80;;
68379;SDS011;57711;53.196;19.638;2023-01-19T03:37:15;123.30;;;52.20;;
68379;SDS011;57711;53.196;19.638;2023-01-19T03:39:45;94.80;;;44.30;;
68379;SDS011;57711;53.196;19.638;2023-01-19T03:42:13;77.30;;;39.70;;
68379;SDS011;57711;53.196;19.638;2023-01-19T03:44:43;70.30;;;38.00;;
68379;SDS011;57711;53.196;19.638;2023-01-19T03:47:12;69.90;;;37.60;;
68379;SDS011;57711;53.196;19.638;2023-01-19T03:49:40;64.60;;;34.50;;
68379;SDS011;57711;53.196;19.638;2023-01-19T03:52:11;58.10;;;34.70;;
68379;SDS011;57711;53.196;19.638;2023-01-19T03:54:38;59.30;;;33.50;;
68379;SDS011;57711;53.196;19.638;2023-01-19T03:57:07;59.80;;;33.70;;
68379;SDS011;57711;53.196;19.638;2023-01-19T03:59:34;73.90;;;38.10;;
68379;SDS011;57711;53.196;19.638;2023-01-19T04:02:02;67.10;;;35.50;;
68379;SDS011;57711;53.196;19.638;2023-01-19T04:04:29;69.50;;;37.70;;
68379;SDS011;57711;53.196;19.638;2023-01-19T04:06:56;64.90;;;35.10;;
68379;SDS011;57711;53.196;19.638;2023-01-19T04:09:23;69.00;;;36.60;;
68379;SDS011;57711;53.196;19.638;2023-01-19T04:11:51;69.50;;;38.00;;
68379;SDS011;57711;53.196;19.638;2023-01-19T04:14:18;79.60;;;39.60;;
68379;SDS011;57711;53.196;19.638;2023-01-19T04:16:45;74.20;;;36.70;;
68379;SDS011;57711;53.196;19.638;2023-01-19T04:19:13;67.40;;;35.50;;
68379;SDS011;57711;53.196;19.638;2023-01-19T04:21:40;59.20;;;33.90;;
68379;SDS011;57711;53.196;19.638;2023-01-19T04:24:08;59.40;;;33.10;;
68379;SDS011;57711;53.196;19.638;2023-01-19T04:26:36;54.10;;;32.40;;
68379;SDS011;57711;53.196;19.638;2023-01-19T04:29:03;58.90;;;33.90;;
68379;SDS011;57711;53.196;19.638;2023-01-19T04:31:31;69.30;;;34.70;;
68379;SDS011;57711;53.196;19.638;2023-01-19T04:33:58;67.50;;;34.20;;
68379;SDS011;57711;53.196;19.638;2023-01-19T04:36:25;72.90;;;35.00;;
68379;SDS011;57711;53.196;19.638;2023-01-19T04:38:54;73.80;;;37.80;;
68379;SDS011;57711;53.196;19.638;2023-01-19T04:41:21;70.60;;;37.40;;
68379;SDS011;57711;53.196;19.638;2023-01-19T04:43:48;75.30;;;38.40;;
68379;SDS011;57711;53.196;19.638;2023-01-19T04:46:15;73.70;;;38.30;;
68379;SDS011;57711;53.196;19.638;2023-01-19T04:48:42;73.20;;;38.20;;
68379;SDS011;57711;53.196;19.638;2023-01-19T04:51:10;64.60;;;36.10;;
68379;SDS011;57711;53.196;19.638;2023-01-19T04:53:37;64.00;;;31.90;;
68379;SDS011;57711;53.196;19.638;2023-01-19T04:56:04;58.50;;;33.30;;
68379;SDS011;57711;53.196;19.638;2023-01-19T04:58:32;68.70;;;34.70;;
68379;SDS011;57711;53.196;19.638;2023-01-19T05:00:59;81.80;;;43.40;;
68379;SDS011;57711;53.196;19.638;2023-01-19T05:03:26;99.50;;;50.00;;
68379;SDS011;57711;53.196;19.638;2023-01-19T05:05:53;92.30;;;45.10;;
68379;SDS011;57711;53.196;19.638;2023-01-19T05:08:21;84.50;;;43.80;;
68379;SDS011;57711;53.196;19.638;2023-01-19T05:10:48;162.50;;;69.30;;
68379;SDS011;57711;53.196;19.638;2023-01-19T05:13:15;103.60;;;49.40;;
68379;SDS011;57711;53.196;19.638;2023-01-19T05:15:43;67.10;;;34.70;;
68379;SDS011;57711;53.196;19.638;2023-01-19T05:18:10;69.50;;;34.60;;
68379;SDS011;57711;53.196;19.638;2023-01-19T05:20:37;155.90;;;54.60;;
68379;SDS011;57711;53.196;19.638;2023-01-19T05:23:05;115.60;;;48.70;;
68379;SDS011;57711;53.196;19.638;2023-01-19T05:25:33;78.60;;;42.00;;
68379;SDS011;57711;53.196;19.638;2023-01-19T05:28:00;70.30;;;37.70;;
68379;SDS011;57711;53.196;19.638;2023-01-19T05:30:28;56.10;;;34.00;;
68379;SDS011;57711;53.196;19.638;2023-01-19T05:32:55;62.30;;;35.50;;
68379;SDS011;57711;53.196;19.638;2023-01-19T05:35:23;66.60;;;39.00;;
68379;SDS011;57711;53.196;19.638;2023-01-19T05:38:01;113.30;;;56.50;;
68379;SDS011;57711;53.196;19.638;2023-01-19T05:40:29;113.40;;;51.10;;
68379;SDS011;57711;53.196;19.638;2023-01-19T05:42:56;146.20;;;61.40;;
68379;SDS011;57711;53.196;19.638;2023-01-19T05:45:27;137.90;;;57.90;;
68379;SDS011;57711;53.196;19.638;2023-01-19T05:47:54;123.30;;;51.10;;
68379;SDS011;57711;53.196;19.638;2023-01-19T05:50:21;82.30;;;38.30;;
68379;SDS011;57711;53.196;19.638;2023-01-19T05:52:49;158.70;;;57.50;;
68379;SDS011;57711;53.196;19.638;2023-01-19T05:55:19;87.60;;;36.50;;
68379;SDS011;57711;53.196;19.638;2023-01-19T05:57:47;59.30;;;33.50;;
68379;SDS011;57711;53.196;19.638;2023-01-19T06:00:15;61.20;;;34.50;;
68379;SDS011;57711;53.196;19.638;2023-01-19T06:02:43;62.20;;;34.60;;
68379;SDS011;57711;53.196;19.638;2023-01-19T06:05:10;77.90;;;39.90;;
68379;SDS011;57711;53.196;19.638;2023-01-19T06:07:37;60.60;;;34.80;;
68379;SDS011;57711;53.196;19.638;2023-01-19T06:10:05;61.60;;;33.50;;
68379;SDS011;57711;53.196;19.638;2023-01-19T06:12:32;57.80;;;32.30;;
68379;SDS011;57711;53.196;19.638;2023-01-19T06:15:00;57.00;;;32.10;;
68379;SDS011;57711;53.196;19.638;2023-01-19T06:17:27;67.40;;;35.00;;
68379;SDS011;57711;53.196;19.638;2023-01-19T06:19:54;87.20;;;42.90;;
68379;SDS011;57711;53.196;19.638;2023-01-19T06:22:22;83.20;;;43.20;;
68379;SDS011;57711;53.196;19.638;2023-01-19T06:24:49;64.10;;;37.60;;
68379;SDS011;57711;53.196;19.638;2023-01-19T06:27:16;53.10;;;30.70;;
68379;SDS011;57711;53.196;19.638;2023-01-19T06:29:44;60.10;;;34.50;;
68379;SDS011;57711;53.196;19.638;2023-01-19T06:32:11;75.50;;;40.90;;
68379;SDS011;57711;53.196;19.638;2023-01-19T06:34:38;55.80;;;28.60;;
68379;SDS011;57711;53.196;19.638;2023-01-19T06:37:09;119.70;;;57.80;;
68379;SDS011;57711;53.196;19.638;2023-01-19T06:39:39;176.40;;;80.50;;
68379;SDS011;57711;53.196;19.638;2023-01-19T06:42:07;186.70;;;94.90;;
68379;SDS011;57711;53.196;19.638;2023-01-19T06:44:34;150.60;;;78.50;;
68379;SDS011;57711;53.196;19.638;2023-01-19T06:47:01;165.80;;;83.40;;
68379;SDS011;57711;53.196;19.638;2023-01-19T06:49:41;88.60;;;47.80;;
68379;SDS011;57711;53.196;19.638;2023-01-19T06:52:09;159.80;;;90.40;;
68379;SDS011;57711;53.196;19.638;2023-01-19T06:54:37;137.50;;;76.30;;
68379;SDS011;57711;53.196;19.638;2023-01-19T06:57:04;116.20;;;67.80;;
68379;SDS011;57711;53.196;19.638;2023-01-19T06:59:31;115.90;;;63.10;;
68379;SDS011;57711;53.196;19.638;2023-01-19T07:01:58;131.40;;;68.70;;
68379;SDS011;57711;53.196;19.638;2023-01-19T07:04:46;101.60;;;50.80;;
68379;SDS011;57711;53.196;19.638;2023-01-19T07:07:13;118.00;;;57.60;;
68379;SDS011;57711;53.196;19.638;2023-01-19T07:09:42;97.60;;;48.20;;
68379;SDS011;57711;53.196;19.638;2023-01-19T07:12:09;111.10;;;50.50;;
68379;SDS011;57711;53.196;19.638;2023-01-19T07:14:36;112.80;;;53.90;;
68379;SDS011;57711;53.196;19.638;2023-01-19T07:17:03;95.70;;;49.80;;
68379;SDS011;57711;53.196;19.638;2023-01-19T07:19:30;122.20;;;58.40;;
68379;SDS011;57711;53.196;19.638;2023-01-19T07:21:58;125.80;;;57.90;;
68379;SDS011;57711;53.196;19.638;2023-01-19T07:24:25;273.70;;;146.60;;
68379;SDS011;57711;53.196;19.638;2023-01-19T07:26:52;232.20;;;125.40;;
68379;SDS011;57711;53.196;19.638;2023-01-19T07:29:20;136.80;;;70.60;;
68379;SDS011;57711;53.196;19.638;2023-01-19T07:31:47;145.70;;;75.90;;
68379;SDS011;57711;53.196;19.638;2023-01-19T07:34:15;118.80;;;59.30;;
68379;SDS011;57711;53.196;19.638;2023-01-19T07:36:42;117.70;;;59.80;;
68379;SDS011;57711;53.196;19.638;2023-01-19T07:39:10;109.50;;;56.30;;
68379;SDS011;57711;53.196;19.638;2023-01-19T07:41:37;109.70;;;58.00;;
68379;SDS011;57711;53.196;19.638;2023-01-19T07:44:05;140.50;;;77.50;;
68379;SDS011;57711;53.196;19.638;2023-01-19T07:46:32;151.10;;;80.40;;
68379;SDS011;57711;53.196;19.638;2023-01-19T07:48:59;107.80;;;53.90;;
68379;SDS011;57711;53.196;19.638;2023-01-19T07:51:26;108.80;;;54.30;;
68379;SDS011;57711;53.196;19.638;2023-01-19T07:53:54;127.80;;;58.00;;
68379;SDS011;57711;53.196;19.638;2023-01-19T07:56:21;128.60;;;60.10;;
68379;SDS011;57711;53.196;19.638;2023-01-19T07:58:50;171.90;;;84.70;;
68379;SDS011;57711;53.196;19.638;2023-01-19T08:01:18;133.30;;;63.10;;
68379;SDS011;57711;53.196;19.638;2023-01-19T08:03:48;167.60;;;67.40;;
68379;SDS011;57711;53.196;19.638;2023-01-19T08:06:20;178.80;;;73.20;;
68379;SDS011;57711;53.196;19.638;2023-01-19T08:08:49;153.10;;;63.20;;
68379;SDS011;57711;53.196;19.638;2023-01-19T08:11:16;126.10;;;57.70;;
68379;SDS011;57711;53.196;19.638;2023-01-19T08:13:44;188.60;;;78.30;;
68379;SDS011;57711;53.196;19.638;2023-01-19T08:16:11;131.60;;;59.20;;
68379;SDS011;57711;53.196;19.638;2023-01-19T08:18:38;138.10;;;66.40;;
68379;SDS011;57711;53.196;19.638;2023-01-19T08:21:05;105.30;;;50.80;;
68379;SDS011;57711;53.196;19.638;2023-01-19T08:23:32;118.40;;;57.70;;
68379;SDS011;57711;53.196;19.638;2023-01-19T08:26:00;126.80;;;62.40;;
68379;SDS011;57711;53.196;19.638;2023-01-19T08:28:27;131.30;;;68.40;;
68379;SDS011;57711;53.196;19.638;2023-01-19T08:30:54;119.40;;;57.70;;
68379;SDS011;57711;53.196;19.638;2023-01-19T08:33:22;167.00;;;90.10;;
68379;SDS011;57711;53.196;19.638;2023-01-19T08:35:51;167.80;;;83.70;;
68379;SDS011;57711;53.196;19.638;2023-01-19T08:38:19;162.40;;;82.00;;
68379;SDS011;57711;53.196;19.638;2023-01-19T08:40:47;137.00;;;67.70;;
68379;SDS011;57711;53.196;19.638;2023-01-19T08:43:15;148.20;;;75.50;;
68379;SDS011;57711;53.196;19.638;2023-01-19T08:45:49;134.80;;;74.20;;
68379;SDS011;57711;53.196;19.638;2023-01-19T08:48:18;133.90;;;68.00;;
68379;SDS011;57711;53.196;19.638;2023-01-19T08:50:48;148.20;;;74.20;;
68379;SDS011;57711;53.196;19.638;2023-01-19T08:53:17;160.60;;;74.70;;
68379;SDS011;57711;53.196;19.638;2023-01-19T08:55:46;163.80;;;68.50;;
68379;SDS011;57711;53.196;19.638;2023-01-19T08:58:13;165.40;;;72.90;;
68379;SDS011;57711;53.196;19.638;2023-01-19T09:00:41;200.10;;;80.90;;
68379;SDS011;57711;53.196;19.638;2023-01-19T09:03:10;177.80;;;73.60;;
68379;SDS011;57711;53.196;19.638;2023-01-19T09:05:39;172.70;;;75.30;;
68379;SDS011;57711;53.196;19.638;2023-01-19T09:08:07;151.50;;;67.60;;
68379;SDS011;57711;53.196;19.638;2023-01-19T09:10:36;168.00;;;73.90;;
68379;SDS011;57711;53.196;19.638;2023-01-19T09:13:06;162.30;;;67.90;;
68379;SDS011;57711;53.196;19.638;2023-01-19T09:15:37;175.10;;;75.50;;
68379;SDS011;57711;53.196;19.638;2023-01-19T09:18:06;168.80;;;78.60;;
68379;SDS011;57711;53.196;19.638;2023-01-19T09:20:40;191.00;;;70.90;;
68379;SDS011;57711;53.196;19.638;2023-01-19T09:23:11;200.30;;;74.40;;
68379;SDS011;57711;53.196;19.638;2023-01-19T09:25:40;397.40;;;151.60;;
68379;SDS011;57711;53.196;19.638;2023-01-19T09:28:10;385.70;;;194.40;;
68379;SDS011;57711;53.196;19.638;2023-01-19T09:30:40;267.30;;;113.80;;
68379;SDS011;57711;53.196;19.638;2023-01-19T09:33:09;230.50;;;92.80;;
68379;SDS011;57711;53.196;19.638;2023-01-19T09:35:39;244.60;;;101.40;;
68379;SDS011;57711;53.196;19.638;2023-01-19T09:38:07;260.00;;;103.70;;
68379;SDS011;57711;53.196;19.638;2023-01-19T09:40:40;212.90;;;95.70;;
68379;SDS011;57711;53.196;19.638;2023-01-19T09:45:42;156.00;;;65.00;;
68379;SDS011;57711;53.196;19.638;2023-01-19T09:48:38;151.40;;;63.20;;
68379;SDS011;57711;53.196;19.638;2023-01-19T09:51:22;178.60;;;76.90;;
68379;SDS011;57711;53.196;19.638;2023-01-19T09:56:21;188.80;;;78.80;;
68379;SDS011;57711;53.196;19.638;2023-01-19T09:58:49;229.90;;;113.10;;
68379;SDS011;57711;53.196;19.638;2023-01-19T10:04:16;187.70;;;76.30;;
68379;SDS011;57711;53.196;19.638;2023-01-19T10:06:46;150.90;;;63.60;;
68379;SDS011;57711;53.196;19.638;2023-01-19T10:09:28;143.70;;;62.60;;
68379;SDS011;57711;53.196;19.638;2023-01-19T10:12:03;155.70;;;71.10;;
68379;SDS011;57711;53.196;19.638;2023-01-19T10:14:44;138.70;;;65.20;;
68379;SDS011;57711;53.196;19.638;2023-01-19T10:20:07;175.60;;;72.00;;
68379;SDS011;57711;53.196;19.638;2023-01-19T10:22:45;189.30;;;81.50;;
68379;SDS011;57711;53.196;19.638;2023-01-19T10:25:16;204.00;;;82.50;;
68379;SDS011;57711;53.196;19.638;2023-01-19T10:27:49;207.90;;;83.30;;
68379;SDS011;57711;53.196;19.638;2023-01-19T10:30:18;211.20;;;86.30;;
68379;SDS011;57711;53.196;19.638;2023-01-19T10:32:51;189.20;;;74.50;;
68379;SDS011;57711;53.196;19.638;2023-01-19T10:35:20;155.20;;;64.50;;
68379;SDS011;57711;53.196;19.638;2023-01-19T10:37:54;111.10;;;45.40;;
68379;SDS011;57711;53.196;19.638;2023-01-19T10:40:25;123.60;;;52.50;;
68379;SDS011;57711;53.196;19.638;2023-01-19T10:42:59;117.10;;;51.80;;
68379;SDS011;57711;53.196;19.638;2023-01-19T10:45:27;103.30;;;45.20;;
68379;SDS011;57711;53.196;19.638;2023-01-19T10:47:58;132.30;;;52.70;;
68379;SDS011;57711;53.196;19.638;2023-01-19T10:50:33;162.00;;;68.00;;
68379;SDS011;57711;53.196;19.638;2023-01-19T10:53:03;142.00;;;60.60;;
68379;SDS011;57711;53.196;19.638;2023-01-19T10:55:35;142.30;;;59.10;;
68379;SDS011;57711;53.196;19.638;2023-01-19T10:58:24;148.80;;;63.20;;
68379;SDS011;57711;53.196;19.638;2023-01-19T11:00:55;138.20;;;60.90;;
68379;SDS011;57711;53.196;19.638;2023-01-19T11:03:39;156.20;;;67.10;;
68379;SDS011;57711;53.196;19.638;2023-01-19T11:08:41;121.20;;;54.50;;
68379;SDS011;57711;53.196;19.638;2023-01-19T11:11:11;120.40;;;48.90;;
68379;SDS011;57711;53.196;19.638;2023-01-19T11:13:39;116.70;;;51.10;;
68379;SDS011;57711;53.196;19.638;2023-01-19T11:18:55;153.40;;;62.40;;
68379;SDS011;57711;53.196;19.638;2023-01-19T11:21:24;166.60;;;69.50;;
68379;SDS011;57711;53.196;19.638;2023-01-19T11:23:54;175.60;;;69.60;;
68379;SDS011;57711;53.196;19.638;2023-01-19T11:29:14;136.90;;;59.50;;
68379;SDS011;57711;53.196;19.638;2023-01-19T11:31:44;135.60;;;59.80;;
68379;SDS011;57711;53.196;19.638;2023-01-19T11:37:00;139.20;;;59.40;;
68379;SDS011;57711;53.196;19.638;2023-01-19T11:39:30;140.30;;;60.80;;
68379;SDS011;57711;53.196;19.638;2023-01-19T11:42:10;152.70;;;70.10;;
68379;SDS011;57711;53.196;19.638;2023-01-19T11:44:42;135.60;;;59.30;;
68379;SDS011;57711;53.196;19.638;2023-01-19T11:47:16;121.80;;;58.10;;
68379;SDS011;57711;53.196;19.638;2023-01-19T11:52:24;167.40;;;72.90;;
68379;SDS011;57711;53.196;19.638;2023-01-19T11:57:51;180.20;;;81.10;;
68379;SDS011;57711;53.196;19.638;2023-01-19T12:02:52;164.50;;;75.60;;
68379;SDS011;57711;53.196;19.638;2023-01-19T12:05:25;163.30;;;61.80;;
68379;SDS011;57711;53.196;19.638;2023-01-19T12:07:58;126.90;;;49.60;;
68379;SDS011;57711;53.196;19.638;2023-01-19T12:10:33;109.20;;;46.40;;
68379;SDS011;57711;53.196;19.638;2023-01-19T12:13:04;133.00;;;56.90;;
68379;SDS011;57711;53.196;19.638;2023-01-19T12:18:15;96.80;;;43.20;;
68379;SDS011;57711;53.196;19.638;2023-01-19T12:20:48;107.20;;;44.20;;
68379;SDS011;57711;53.196;19.638;2023-01-19T12:28:48;106.90;;;44.90;;
68379;SDS011;57711;53.196;19.638;2023-01-19T12:31:18;114.00;;;47.80;;
68379;SDS011;57711;53.196;19.638;2023-01-19T12:33:48;107.00;;;46.60;;
68379;SDS011;57711;53.196;19.638;2023-01-19T12:39:03;114.40;;;53.30;;
68379;SDS011;57711;53.196;19.638;2023-01-19T12:49:26;113.70;;;46.80;;
68379;SDS011;57711;53.196;19.638;2023-01-19T12:54:41;112.30;;;47.70;;
68379;SDS011;57711;53.196;19.638;2023-01-19T13:00:00;100.20;;;47.40;;
68379;SDS011;57711;53.196;19.638;2023-01-19T13:02:42;132.70;;;61.90;;
68379;SDS011;57711;53.196;19.638;2023-01-19T13:21:34;101.10;;;46.00;;
68379;SDS011;57711;53.196;19.638;2023-01-19T13:26:42;102.20;;;44.30;;
68379;SDS011;57711;53.196;19.638;2023-01-19T13:31:57;114.30;;;52.50;;
68379;SDS011;57711;53.196;19.638;2023-01-19T13:34:38;100.90;;;43.60;;
68379;SDS011;57711;53.196;19.638;2023-01-19T13:37:14;104.40;;;43.40;;
68379;SDS011;57711;53.196;19.638;2023-01-19T13:39:44;124.80;;;48.80;;
68379;SDS011;57711;53.196;19.638;2023-01-19T13:42:22;123.50;;;54.50;;
68379;SDS011;57711;53.196;19.638;2023-01-19T13:44:59;109.30;;;50.50;;
68379;SDS011;57711;53.196;19.638;2023-01-19T13:47:34;97.70;;;44.90;;
68379;SDS011;57711;53.196;19.638;2023-01-19T13:50:18;94.20;;;44.90;;
68379;SDS011;57711;53.196;19.638;2023-01-19T13:52:50;111.50;;;44.60;;
68379;SDS011;57711;53.196;19.638;2023-01-19T13:55:20;109.80;;;45.30;;
68379;SDS011;57711;53.196;19.638;2023-01-19T13:57:49;103.70;;;43.70;;
68379;SDS011;57711;53.196;19.638;2023-01-19T14:00:18;97.10;;;45.10;;
68379;SDS011;57711;53.196;19.638;2023-01-19T14:02:54;111.30;;;44.40;;
68379;SDS011;57711;53.196;19.638;2023-01-19T14:05:24;119.10;;;46.30;;
68379;SDS011;57711;53.196;19.638;2023-01-19T14:08:26;94.80;;;40.00;;
68379;SDS011;57711;53.196;19.638;2023-01-19T14:13:21;95.80;;;40.80;;
68379;SDS011;57711;53.196;19.638;2023-01-19T14:15:49;119.00;;;47.50;;
68379;SDS011;57711;53.196;19.638;2023-01-19T14:20:56;119.30;;;50.10;;
68379;SDS011;57711;53.196;19.638;2023-01-19T14:32:06;101.90;;;41.10;;
68379;SDS011;57711;53.196;19.638;2023-01-19T14:37:35;131.10;;;50.40;;
68379;SDS011;57711;53.196;19.638;2023-01-19T14:42:43;216.30;;;75.90;;
68379;SDS011;57711;53.196;19.638;2023-01-19T14:45:16;157.60;;;60.20;;
68379;SDS011;57711;53.196;19.638;2023-01-19T14:50:29;144.90;;;62.80;;
68379;SDS011;57711;53.196;19.638;2023-01-19T14:53:00;129.30;;;55.70;;
68379;SDS011;57711;53.196;19.638;2023-01-19T14:58:20;141.70;;;67.20;;
68379;SDS011;57711;53.196;19.638;2023-01-19T15:00:50;131.70;;;61.40;;
68379;SDS011;57711;53.196;19.638;2023-01-19T15:03:22;106.30;;;52.30;;
68379;SDS011;57711;53.196;19.638;2023-01-19T15:06:12;101.30;;;45.70;;
68379;SDS011;57711;53.196;19.638;2023-01-19T15:08:41;104.00;;;46.40;;
68379;SDS011;57711;53.196;19.638;2023-01-19T15:11:10;104.80;;;46.40;;
68379;SDS011;57711;53.196;19.638;2023-01-19T15:13:58;102.20;;;44.60;;
68379;SDS011;57711;53.196;19.638;2023-01-19T15:16:27;115.10;;;46.80;;
68379;SDS011;57711;53.196;19.638;2023-01-19T15:18:57;115.70;;;45.20;;
68379;SDS011;57711;53.196;19.638;2023-01-19T15:21:24;109.30;;;46.80;;
68379;SDS011;57711;53.196;19.638;2023-01-19T15:23:54;98.60;;;41.10;;
68379;SDS011;57711;53.196;19.638;2023-01-19T15:26:24;92.60;;;41.40;;
68379;SDS011;57711;53.196;19.638;2023-01-19T15:28:53;93.20;;;43.00;;
68379;SDS011;57711;53.196;19.638;2023-01-19T15:31:22;95.10;;;45.50;;
68379;SDS011;57711;53.196;19.638;2023-01-19T15:33:51;97.90;;;45.60;;
68379;SDS011;57711;53.196;19.638;2023-01-19T15:36:19;138.70;;;58.00;;
68379;SDS011;57711;53.196;19.638;2023-01-19T15:38:48;123.30;;;57.80;;
68379;SDS011;57711;53.196;19.638;2023-01-19T15:43:51;135.10;;;57.20;;
68379;SDS011;57711;53.196;19.638;2023-01-19T15:46:19;142.70;;;64.20;;
68379;SDS011;57711;53.196;19.638;2023-01-19T15:48:50;213.80;;;115.80;;
68379;SDS011;57711;53.196;19.638;2023-01-19T15:51:19;194.20;;;94.20;;
68379;SDS011;57711;53.196;19.638;2023-01-19T15:53:48;183.30;;;80.90;;
68379;SDS011;57711;53.196;19.638;2023-01-19T15:56:19;161.70;;;81.60;;
68379;SDS011;57711;53.196;19.638;2023-01-19T15:58:49;151.70;;;72.40;;
68379;SDS011;57711;53.196;19.638;2023-01-19T16:01:18;118.40;;;54.70;;
68379;SDS011;57711;53.196;19.638;2023-01-19T16:03:47;110.80;;;50.40;;
68379;SDS011;57711;53.196;19.638;2023-01-19T16:06:15;116.80;;;53.20;;
68379;SDS011;57711;53.196;19.638;2023-01-19T16:08:43;140.30;;;65.30;;
68379;SDS011;57711;53.196;19.638;2023-01-19T16:11:12;124.10;;;54.00;;
68379;SDS011;57711;53.196;19.638;2023-01-19T16:13:44;120.90;;;57.80;;
68379;SDS011;57711;53.196;19.638;2023-01-19T16:16:16;104.20;;;47.30;;
68379;SDS011;57711;53.196;19.638;2023-01-19T16:18:45;114.60;;;51.00;;